메인 페이지
METAR-TAF:

METAR-TAF

공항 :

인디애나폴리스 국제공항

인디애나폴리스, 인디애나, 미국

위도: 39-43-30N, 경도: 086-16-55W, 고도: 243m

현재 날씨관측

예보는 25분 전, 14:54시(UTC)에 발표되었습니다.
6kt
온도 -5°C
습도 79%
기압 1030 hPa
시정: 16.1km
고도 7000ft 상공 구름 많음
고도 9000ft 상공 구름 많음

METAR: KIND 111454Z 26006KT 10SM BKN070 BKN090 M05/M08 A3041 RMK AO2 SLP310 T10501078 53010

시각: 10:19 (15:19 UTC)

예보

예보는 54분 전, 14:25시(UTC)에 발표되었습니다.
예보 대상 시간: 11일 14시부터 12일 18시까지 (UTC)
서남서8kt
시정: 10km
고도 9000ft 상공 구름 보통
11일 1600시부터 (UTC)
10kt
시정: 10km
고도 5000ft 상공 구름 보통
11일 2300시부터 (UTC)
6kt
시정: 10km
고도 20000ft 상공 구름 조금
12일 1600시부터 (UTC)
9kt
시정: 10km
고도 20000ft 상공 구름 많음

TAF: KIND 111425Z 1114/1218 25008KT P6SM SCT090 FM111600 26010KT P6SM SCT050 FM112300 01006KT P6SM FEW200 FM121600 17009KT P6SM BKN200

4,000개 이상의 공항 관측 자료 및 예보 (METAR 및 TAF 보고).

지도상에서 검색 가능한 기상관측소가 노란 점과 빨간 점으로 표시되어 있습니다.

기상관측소 명을 보려면 표시 위로 마우스를 이동하세요.

날씨 관측과 예보를 보려면 클릭하세요.

지도 변경 : 확대하려면 엑스 표시가 있는 녹색 버튼, 축소하려면 빼기 표시가 있는 녹색 버튼, 다음 페이지의 지도를 보려면 녹색 화살표를 클릭하세요.


METAR-TAF: